OSDI/DAM METAR and TAF weather

Enter ICAO airport designator
Station Type Date Time Source
OSDI METAR 2020/09/21 10:00 UTC NOAA

OSDI 211000Z 31004KT CAVOK 32/12 Q1013


Station Type Date Time Source
OSDI Decoded METAR 2020/09/21 10:00 UTC NOAA

Damascus Int. Airport, Syria (OSDI) 33-25N 036-31E 609M
Sep 21, 2020 - 06:00 AM EDT / 2020.09.21 1000 UTC
Wind: from the NW (310 degrees) at 5 MPH (4 KT):0
Visibility: greater than 7 mile(s):0
Temperature: 89 F (32 C)
Dew Point: 53 F (12 C)
Relative Humidity: 29%
Pressure (altimeter): 29.91 in. Hg (1013 hPa)
ob: OSDI 211000Z 31004KT CAVOK 32/12 Q1013
cycle: 10

Station Type Date Time Source
OSDI TAF 2020/09/21 12:27 UTC NOAA

TAF TAF OSDI 210900Z 2112/2218 22010KT CAVOK
TEMPO 2112/2118 24015KT

Example: see airport list